Time;durP1;ratioP1;P1;durP2;ratioP2;P2;SDS_P1;SDS_P2;PMS_P1;PMS_P2;Temp;Humidity;BMP_temperature;BMP_pressure;BME280_temperature;BME280_humidity;BME280_pressure;Samples;Min_cycle;Max_cycle;Signal;HPM_P1;HPM_P2
2022/01/17 00:02:21;;;;;;;8.52;2.17;;;6.00;99.90;;;;;;5133838;27;20091;-76
2022/01/17 00:04:48;;;;;;;9.50;1.92;;;6.00;99.90;;;;;;5129971;27;20079;-76
2022/01/17 00:07:14;;;;;;;9.07;2.28;;;6.00;99.90;;;;;;5135120;27;20047;-76
2022/01/17 00:09:40;;;;;;;11.05;2.22;;;6.10;99.90;;;;;;5134895;27;20517;-76
2022/01/17 00:12:06;;;;;;;10.60;2.30;;;6.00;99.90;;;;;;5135021;27;20130;-72
2022/01/17 00:14:39;;;;;;;11.52;1.90;;;6.10;99.90;;;;;;5133167;27;20065;-76
2022/01/17 00:17:33;;;;;;;10.27;2.20;;;6.10;99.90;;;;;;5135421;27;20047;-73
2022/01/17 00:19:54;;;;;;;11.45;2.15;;;6.10;99.90;;;;;;5114254;28;20055;-76
2022/01/17 00:22:21;;;;;;;9.10;2.10;;;6.10;99.90;;;;;;5128537;27;20407;-76
2022/01/17 00:24:48;;;;;;;9.48;2.55;;;6.10;99.90;;;;;;5119641;27;20377;-75
2022/01/17 00:27:14;;;;;;;9.82;2.28;;;6.00;99.90;;;;;;5133805;27;20047;-76
2022/01/17 00:29:40;;;;;;;12.77;2.33;;;6.00;99.90;;;;;;5135312;27;20074;-76
2022/01/17 00:32:07;;;;;;;7.00;1.92;;;6.00;99.90;;;;;;5126455;27;20548;-76
2022/01/17 00:34:33;;;;;;;11.45;2.47;;;6.00;99.90;;;;;;5124726;27;20047;-76
2022/01/17 00:36:58;;;;;;;12.15;2.50;;;5.90;99.90;;;;;;5131075;27;20522;-77
2022/01/17 00:39:25;;;;;;;12.20;2.83;;;5.90;99.90;;;;;;5133725;27;20183;-76
2022/01/17 00:41:51;;;;;;;7.90;2.30;;;5.90;99.90;;;;;;5135259;27;20511;-76
2022/01/17 00:44:21;;;;;;;10.75;2.45;;;5.90;99.90;;;;;;5133681;27;20096;-76
2022/01/17 00:46:48;;;;;;;15.27;2.83;;;5.90;99.90;;;;;;5132251;27;20043;-76
2022/01/17 00:49:14;;;;;;;13.15;2.15;;;5.80;99.90;;;;;;5134237;27;20510;-76
2022/01/17 00:51:40;;;;;;;10.77;2.47;;;5.80;99.90;;;;;;5125145;27;20071;-76
2022/01/17 00:54:05;;;;;;;8.63;2.28;;;5.80;99.90;;;;;;5130626;27;20491;-76
2022/01/17 00:56:32;;;;;;;11.23;2.25;;;5.80;99.90;;;;;;5126195;27;20122;-76
2022/01/17 00:58:57;;;;;;;7.82;2.08;;;5.80;99.90;;;;;;5133946;27;20043;-77
2022/01/17 01:01:23;;;;;;;10.43;2.38;;;5.80;99.90;;;;;;5133708;27;20045;-76
2022/01/17 01:03:49;;;;;;;8.55;2.58;;;5.80;99.90;;;;;;5133311;27;20476;-76
2022/01/17 01:06:15;;;;;;;11.82;2.38;;;5.90;99.90;;;;;;5133018;27;20468;-72
2022/01/17 01:08:40;;;;;;;9.52;2.22;;;5.80;99.90;;;;;;5132141;27;20058;-76
2022/01/17 01:11:07;;;;;;;12.18;2.60;;;5.90;99.90;;;;;;5113952;28;20079;-76
2022/01/17 01:13:33;;;;;;;11.63;2.20;;;5.90;99.90;;;;;;5113721;27;20063;-76
2022/01/17 01:21:32;;;;;;;6.70;2.00;;;5.90;99.90;;;;;;5113738;28;20098;-76
2022/01/17 01:29:18;;;;;;;8.43;1.88;;;5.80;99.90;;;;;;5133103;27;20480;-72
2022/01/17 01:31:55;;;;;;;10.50;2.78;;;5.80;99.90;;;;;;5130801;27;20039;-76
2022/01/17 01:34:30;;;;;;;8.80;2.53;;;5.80;99.90;;;;;;5132481;27;20124;-76
2022/01/17 01:36:56;;;;;;;9.15;2.22;;;5.80;99.90;;;;;;5134078;27;20047;-77
2022/01/17 01:39:24;;;;;;;11.80;2.40;;;5.80;99.90;;;;;;5132148;27;20488;-76
2022/01/17 01:41:51;;;;;;;8.95;2.47;;;5.80;99.90;;;;;;5133634;27;20082;-76
2022/01/17 01:44:20;;;;;;;11.43;3.15;;;5.80;99.90;;;;;;5132643;27;20138;-75
2022/01/17 01:46:48;;;;;;;10.57;2.30;;;5.70;99.90;;;;;;5113310;28;20126;-76
2022/01/17 01:49:15;;;;;;;9.07;2.63;;;5.70;99.90;;;;;;5113808;28;20052;-76
2022/01/17 01:51:41;;;;;;;10.50;2.17;;;5.70;99.90;;;;;;5133103;27;20679;-76
2022/01/17 01:54:08;;;;;;;9.05;2.40;;;5.70;99.90;;;;;;5133754;27;20049;-77
2022/01/17 01:56:49;;;;;;;11.75;2.60;;;5.70;99.90;;;;;;5131086;27;20082;-77
2022/01/17 01:59:19;;;;;;;9.63;2.60;;;5.60;99.90;;;;;;5132606;27;20051;-76
2022/01/17 02:01:46;;;;;;;13.05;3.28;;;5.60;99.90;;;;;;5129589;27;20031;-76
2022/01/17 02:04:13;;;;;;;9.20;2.63;;;5.70;99.90;;;;;;5133634;27;20047;-77
2022/01/17 02:06:39;;;;;;;11.00;2.40;;;5.60;99.90;;;;;;5132036;27;20047;-76
2022/01/17 02:09:05;;;;;;;9.38;2.22;;;5.60;99.90;;;;;;5133594;27;20096;-77
2022/01/17 02:11:35;;;;;;;8.68;1.88;;;5.60;99.90;;;;;;5132110;27;20487;-76
2022/01/17 02:14:02;;;;;;;10.80;2.58;;;5.60;99.90;;;;;;5133580;27;20035;-77
2022/01/17 02:16:28;;;;;;;11.63;2.55;;;5.60;99.90;;;;;;5131852;27;20188;-76
2022/01/17 02:18:53;;;;;;;11.07;2.50;;;5.60;99.90;;;;;;5133440;28;20552;-76
2022/01/17 02:21:32;;;;;;;10.77;2.63;;;5.50;99.90;;;;;;5131110;28;20038;-76
2022/01/17 02:23:58;;;;;;;10.45;2.70;;;5.50;99.90;;;;;;5113188;28;20051;-76
2022/01/17 02:26:25;;;;;;;8.98;3.03;;;5.50;99.90;;;;;;5114268;28;20061;-72
2022/01/17 02:28:53;;;;;;;9.68;2.95;;;5.50;99.90;;;;;;5133246;27;20095;-77
2022/01/17 02:31:21;;;;;;;9.38;2.85;;;5.50;99.90;;;;;;5127878;27;20051;-77
2022/01/17 02:33:47;;;;;;;10.65;2.88;;;5.50;99.90;;;;;;5132359;27;20188;-76
2022/01/17 02:36:12;;;;;;;10.30;2.67;;;5.50;99.90;;;;;;5120783;27;20040;-77
2022/01/17 02:38:39;;;;;;;11.20;2.75;;;5.50;99.90;;;;;;5112343;28;20051;-77
2022/01/17 02:41:05;;;;;;;13.45;2.53;;;5.50;99.90;;;;;;5121833;28;20059;-76
2022/01/17 02:43:32;;;;;;;11.70;2.40;;;5.50;99.90;;;;;;5132306;27;20081;-76
2022/01/17 02:48:26;;;;;;;10.73;2.38;;;5.50;99.90;;;;;;5132966;27;20168;-77
2022/01/17 02:50:52;;;;;;;13.13;2.90;;;5.50;99.90;;;;;;5123339;28;20139;-77
2022/01/17 02:53:18;;;;;;;13.70;2.88;;;5.40;99.90;;;;;;5116864;28;20125;-76
2022/01/17 02:55:50;;;;;;;11.95;2.70;;;5.40;99.90;;;;;;5128943;27;20055;-77
2022/01/17 02:58:18;;;;;;;11.05;2.15;;;5.40;99.90;;;;;;5127085;28;20092;-77
2022/01/17 03:00:44;;;;;;;17.20;3.33;;;5.30;99.90;;;;;;5131610;27;20039;-75
2022/01/17 03:03:17;;;;;;;12.93;2.58;;;5.30;99.90;;;;;;5133066;27;20126;-77
2022/01/17 03:05:43;;;;;;;10.80;2.55;;;5.30;99.90;;;;;;5131338;27;20094;-75
2022/01/17 03:08:09;;;;;;;11.95;2.63;;;5.20;99.90;;;;;;5132983;28;20086;-77
2022/01/17 03:10:39;;;;;;;11.55;2.65;;;5.20;99.90;;;;;;5134983;27;20079;-77
2022/01/17 03:13:26;;;;;;;13.88;2.80;;;5.10;99.90;;;;;;5134886;27;20045;-77
2022/01/17 03:15:57;;;;;;;16.55;3.00;;;5.10;99.90;;;;;;5135053;27;20091;-76
2022/01/17 03:18:26;;;;;;;13.50;2.58;;;5.00;99.90;;;;;;5136626;27;20065;-77
2022/01/17 03:20:52;;;;;;;12.18;2.60;;;5.00;99.90;;;;;;5133743;27;20051;-76
2022/01/17 03:23:17;;;;;;;9.05;2.60;;;4.90;99.90;;;;;;5120131;27;20058;-77
2022/01/17 03:25:43;;;;;;;13.60;2.75;;;4.90;99.90;;;;;;5133337;27;20039;-76
2022/01/17 03:28:09;;;;;;;14.68;2.90;;;4.90;99.90;;;;;;5132868;27;20391;-77
2022/01/17 03:30:35;;;;;;;14.18;2.92;;;4.80;99.90;;;;;;5135666;27;20054;-72
2022/01/17 03:33:03;;;;;;;13.75;3.42;;;4.80;99.90;;;;;;5135568;27;20043;-77
2022/01/17 03:35:29;;;;;;;14.07;2.97;;;4.80;99.90;;;;;;5135963;27;20043;-75
2022/01/17 03:37:55;;;;;;;12.45;2.90;;;4.80;99.90;;;;;;5128066;27;20633;-77
2022/01/17 03:40:20;;;;;;;10.77;2.88;;;4.80;99.90;;;;;;5136382;27;20036;-76
2022/01/17 03:42:46;;;;;;;15.90;3.30;;;4.80;99.90;;;;;;5118927;27;20464;-77
2022/01/17 03:45:12;;;;;;;15.85;3.15;;;4.80;99.90;;;;;;5118174;27;20052;-77
2022/01/17 03:47:40;;;;;;;14.30;3.15;;;4.80;99.90;;;;;;5116268;27;20498;-75
2022/01/17 03:50:12;;;;;;;11.38;2.67;;;4.80;99.90;;;;;;5115498;28;20126;-76
2022/01/17 03:52:41;;;;;;;12.00;2.97;;;4.70;99.90;;;;;;5128376;27;20377;-72
2022/01/17 03:55:09;;;;;;;10.68;2.33;;;4.80;99.90;;;;;;5135029;27;20043;-77
2022/01/17 03:57:35;;;;;;;14.40;2.90;;;4.70;99.90;;;;;;5134926;27;20043;-77
2022/01/17 04:00:04;;;;;;;14.90;2.65;;;4.70;99.90;;;;;;5135283;27;20129;-77
2022/01/17 04:02:30;;;;;;;10.05;3.15;;;4.70;99.90;;;;;;5134850;27;20055;-78
2022/01/17 04:04:56;;;;;;;12.88;3.00;;;4.80;99.90;;;;;;5135190;27;20111;-77
2022/01/17 04:07:21;;;;;;;13.65;3.00;;;4.80;99.90;;;;;;5134597;27;20042;-77
2022/01/17 04:09:47;;;;;;;10.15;2.85;;;4.80;99.90;;;;;;5135090;27;20107;-77
2022/01/17 04:12:13;;;;;;;11.43;3.13;;;4.80;99.90;;;;;;5130583;27;20122;-78
2022/01/17 04:14:38;;;;;;;9.07;2.40;;;4.80;99.90;;;;;;5130866;27;20365;-72
2022/01/17 04:17:06;;;;;;;14.73;2.90;;;4.90;99.90;;;;;;5124680;27;20118;-77
2022/01/17 04:19:32;;;;;;;15.70;3.35;;;4.90;99.90;;;;;;5132153;27;20043;-76
2022/01/17 04:21:58;;;;;;;13.32;2.78;;;4.90;99.90;;;;;;5133487;27;20099;-77
2022/01/17 04:24:24;;;;;;;10.95;2.65;;;4.90;99.90;;;;;;5135314;27;20122;-77
2022/01/17 04:26:49;;;;;;;13.00;2.70;;;4.90;99.90;;;;;;5126714;27;20051;-77
2022/01/17 04:29:15;;;;;;;11.50;2.80;;;4.90;99.90;;;;;;5133331;27;20492;-77
2022/01/17 04:31:41;;;;;;;13.32;3.50;;;4.90;99.90;;;;;;5134275;27;20038;-72
2022/01/17 04:34:06;;;;;;;10.93;2.47;;;5.00;99.90;;;;;;5134830;27;20047;-77
2022/01/17 04:36:32;;;;;;;11.75;2.47;;;4.90;99.90;;;;;;5134266;27;20088;-77
2022/01/17 04:38:58;;;;;;;14.45;2.42;;;4.90;99.90;;;;;;5132117;27;20039;-77
2022/01/17 04:41:35;;;;;;;12.93;2.78;;;4.90;99.90;;;;;;5134113;27;20050;-77
2022/01/17 04:45:07;;;;;;;12.25;2.53;;;4.90;99.90;;;;;;5133937;27;20424;-76
2022/01/17 04:46:47;;;;;;;13.45;2.92;;;4.90;99.90;;;;;;5127130;27;20047;-76
2022/01/17 04:49:13;;;;;;;10.10;3.03;;;4.80;99.90;;;;;;5120377;27;20039;-77
2022/01/17 04:51:38;;;;;;;10.88;2.47;;;4.80;99.90;;;;;;5132291;27;20131;-76
2022/01/17 04:56:48;;;;;;;17.92;3.08;;;4.80;99.90;;;;;;5133006;27;20096;-77
2022/01/17 04:59:14;;;;;;;9.32;2.50;;;4.60;99.90;;;;;;5134213;27;20039;-78
2022/01/17 05:01:39;;;;;;;7.72;2.58;;;4.70;99.90;;;;;;5133438;27;20047;-75
2022/01/17 05:04:05;;;;;;;13.00;2.80;;;4.70;99.90;;;;;;5114436;27;20062;-78
2022/01/17 05:06:31;;;;;;;10.75;2.28;;;4.70;99.90;;;;;;5121172;27;20039;-78
2022/01/17 05:08:56;;;;;;;12.13;3.10;;;4.60;99.90;;;;;;5133953;27;20051;-78
2022/01/17 05:11:25;;;;;;;9.95;2.58;;;4.60;99.90;;;;;;5132034;27;20039;-77
2022/01/17 05:13:51;;;;;;;8.70;2.30;;;4.70;99.90;;;;;;5131466;27;20098;-78
2022/01/17 05:16:19;;;;;;;10.98;2.83;;;4.70;99.90;;;;;;5134371;27;20130;-78
2022/01/17 05:21:12;;;;;;;12.07;2.95;;;4.70;99.90;;;;;;5133495;27;20137;-78
2022/01/17 05:23:40;;;;;;;11.68;2.60;;;4.80;99.90;;;;;;5132972;27;20075;-77
2022/01/17 05:26:06;;;;;;;11.90;2.85;;;4.80;99.90;;;;;;5133711;27;20403;-78
2022/01/17 05:28:32;;;;;;;10.35;2.90;;;4.80;99.90;;;;;;5134135;27;20046;-77
2022/01/17 05:30:58;;;;;;;12.05;2.88;;;4.90;99.90;;;;;;5133171;27;20043;-78
2022/01/17 05:33:24;;;;;;;8.45;3.17;;;4.90;99.90;;;;;;5133680;27;20078;-77
2022/01/17 05:35:49;;;;;;;11.88;3.05;;;4.90;99.90;;;;;;5133899;27;20043;-72
2022/01/17 05:38:15;;;;;;;15.35;3.30;;;5.00;99.90;;;;;;5132464;27;20039;-78
2022/01/17 05:40:41;;;;;;;14.35;2.67;;;5.00;99.90;;;;;;5133207;27;20453;-78
2022/01/17 05:43:07;;;;;;;12.43;2.65;;;5.00;99.90;;;;;;5133323;27;20491;-78
2022/01/17 05:45:32;;;;;;;10.15;2.55;;;5.10;99.90;;;;;;5133722;27;20043;-77
2022/01/17 05:47:58;;;;;;;12.43;3.00;;;5.20;99.90;;;;;;5131808;27;20056;-77
2022/01/17 05:50:24;;;;;;;12.55;2.90;;;5.10;99.90;;;;;;5133892;27;20054;-77
2022/01/17 05:52:50;;;;;;;12.23;3.28;;;5.10;99.90;;;;;;5133876;27;20396;-78
2022/01/17 05:55:16;;;;;;;13.77;2.40;;;5.20;99.90;;;;;;5132803;27;20483;-78
2022/01/17 05:57:43;;;;;;;10.50;2.78;;;5.20;99.90;;;;;;5133368;27;20039;-77
2022/01/17 06:00:13;;;;;;;11.68;3.15;;;5.30;99.90;;;;;;5131884;27;20043;-77
2022/01/17 06:02:39;;;;;;;12.38;2.80;;;5.30;99.90;;;;;;5133096;27;20054;-78
2022/01/17 06:05:05;;;;;;;12.35;2.83;;;5.30;99.90;;;;;;5133064;27;20047;-78
2022/01/17 06:07:31;;;;;;;14.95;3.90;;;5.30;99.90;;;;;;5133295;27;20043;-78
2022/01/17 06:09:57;;;;;;;10.45;2.95;;;5.30;99.90;;;;;;5133003;27;20376;-72
2022/01/17 06:12:22;;;;;;;8.88;2.90;;;5.30;99.90;;;;;;5133026;28;20186;-77
2022/01/17 06:14:48;;;;;;;14.20;3.35;;;5.40;99.90;;;;;;5133613;28;20042;-78
2022/01/17 06:17:14;;;;;;;12.23;3.70;;;5.40;99.90;;;;;;5132809;27;20489;-78
2022/01/17 06:19:39;;;;;;;11.00;3.00;;;5.40;99.90;;;;;;5133739;28;20392;-79
2022/01/17 06:22:07;;;;;;;12.43;3.40;;;5.40;99.90;;;;;;5131328;28;20039;-80
2022/01/17 06:24:33;;;;;;;10.98;3.38;;;5.50;99.90;;;;;;5133278;28;20151;-79
2022/01/17 06:26:59;;;;;;;11.82;3.38;;;5.50;99.90;;;;;;5132689;27;20066;-72
2022/01/17 06:29:25;;;;;;;13.50;3.95;;;5.40;99.90;;;;;;5133380;28;20492;-79
2022/01/17 06:31:51;;;;;;;11.98;3.40;;;5.50;99.90;;;;;;5133165;27;20047;-79
2022/01/17 06:34:17;;;;;;;15.45;3.70;;;5.50;99.90;;;;;;5132393;27;20050;-79
2022/01/17 06:36:42;;;;;;;11.40;3.90;;;5.50;99.90;;;;;;5133172;28;20476;-79
2022/01/17 06:39:10;;;;;;;14.10;4.15;;;5.50;99.90;;;;;;5132335;27;20075;-79
2022/01/17 06:41:36;;;;;;;15.30;4.07;;;5.50;99.90;;;;;;5133229;27;20053;-79
2022/01/17 06:44:02;;;;;;;11.63;4.32;;;5.50;99.90;;;;;;5133190;27;20385;-73
2022/01/17 06:46:29;;;;;;;14.43;4.28;;;5.50;99.90;;;;;;5137179;27;20467;-79
2022/01/17 06:48:55;;;;;;;12.35;4.72;;;5.50;99.90;;;;;;5136776;27;20542;-78
2022/01/17 06:51:21;;;;;;;15.43;4.80;;;5.50;99.90;;;;;;5136576;27;20495;-79
2022/01/17 06:53:48;;;;;;;14.05;5.13;;;5.50;99.90;;;;;;5136622;27;20047;-79
2022/01/17 06:56:14;;;;;;;16.00;6.00;;;5.50;99.90;;;;;;5136297;27;20047;-79
2022/01/17 06:58:40;;;;;;;14.45;5.78;;;5.60;99.90;;;;;;5137107;27;20383;-79
2022/01/17 07:01:06;;;;;;;12.77;5.15;;;5.60;99.90;;;;;;5136012;27;20051;-78
2022/01/17 07:03:32;;;;;;;15.30;5.30;;;5.60;99.90;;;;;;5136459;27;20046;-79
2022/01/17 07:05:58;;;;;;;14.85;5.65;;;5.60;99.90;;;;;;5136998;27;20043;-79
2022/01/17 07:08:24;;;;;;;15.77;6.05;;;5.70;99.90;;;;;;5136323;27;20039;-79
2022/01/17 07:10:50;;;;;;;13.43;6.63;;;5.70;99.90;;;;;;5136250;27;20054;-79
2022/01/17 07:13:15;;;;;;;17.20;7.05;;;5.70;99.90;;;;;;5135797;27;20043;-78
2022/01/17 07:15:41;;;;;;;15.27;7.63;;;5.70;99.90;;;;;;5136471;27;20043;-78
2022/01/17 07:18:07;;;;;;;16.40;7.40;;;5.70;99.90;;;;;;5135973;27;20051;-78
2022/01/17 07:20:33;;;;;;;16.30;7.80;;;5.80;99.90;;;;;;5136217;27;20047;-79
2022/01/17 07:22:59;;;;;;;16.38;8.10;;;5.80;99.90;;;;;;5134883;27;20403;-79
2022/01/17 07:25:25;;;;;;;17.20;7.88;;;5.80;99.90;;;;;;5135653;27;20129;-78
2022/01/17 07:27:51;;;;;;;18.77;8.90;;;5.80;99.90;;;;;;5136191;27;20472;-80
2022/01/17 07:30:17;;;;;;;22.20;10.50;;;5.80;99.90;;;;;;5135798;27;20047;-78
2022/01/17 07:32:42;;;;;;;19.75;9.50;;;5.80;99.90;;;;;;5136652;27;20104;-79
2022/01/17 07:35:09;;;;;;;19.00;10.27;;;5.90;99.90;;;;;;5135430;27;20503;-72
2022/01/17 07:37:35;;;;;;;18.65;10.98;;;5.80;99.90;;;;;;5136015;27;20551;-79
2022/01/17 07:40:02;;;;;;;23.63;11.57;;;5.80;99.90;;;;;;5136010;27;20039;-79
2022/01/17 07:42:28;;;;;;;22.40;11.60;;;5.80;99.90;;;;;;5135399;27;20040;-77
2022/01/17 07:44:56;;;;;;;21.13;12.15;;;5.90;99.90;;;;;;5136049;27;20054;-79
2022/01/17 07:50:12;;;;;;;23.02;12.05;;;5.90;99.90;;;;;;5115655;28;20054;-80
2022/01/17 07:52:38;;;;;;;;;;;5.90;99.90;;;;;;5115884;28;20051;-80
2022/01/17 07:55:04;;;;;;;21.30;12.45;;;5.90;99.90;;;;;;5114778;28;19920;-79
2022/01/17 07:57:30;;;;;;;23.48;12.82;;;5.90;99.90;;;;;;5134352;27;20047;-80
2022/01/17 07:59:56;;;;;;;29.52;14.18;;;5.90;99.90;;;;;;5135636;27;20043;-79
2022/01/17 08:02:21;;;;;;;23.33;12.82;;;5.90;99.90;;;;;;5135242;27;20039;-79
2022/01/17 08:04:47;;;;;;;25.90;13.43;;;6.00;99.90;;;;;;5135108;27;20047;-79
2022/01/17 08:07:15;;;;;;;24.63;12.50;;;6.00;99.90;;;;;;5135127;27;20035;-72
2022/01/17 08:09:41;;;;;;;25.02;11.75;;;6.00;99.90;;;;;;5135487;27;20046;-75
2022/01/17 08:12:08;;;;;;;25.05;12.93;;;6.00;99.90;;;;;;5134592;27;20085;-78
2022/01/17 08:14:34;;;;;;;21.23;11.88;;;6.00;99.90;;;;;;5134215;27;20110;-78
2022/01/17 08:17:01;;;;;;;25.60;12.38;;;6.10;99.90;;;;;;5135495;27;20054;-77
2022/01/17 08:19:27;;;;;;;22.90;11.40;;;6.10;99.90;;;;;;5134935;27;20046;-77
2022/01/17 08:21:53;;;;;;;24.35;10.98;;;6.10;99.90;;;;;;5135544;27;20047;-77
2022/01/17 08:24:22;;;;;;;26.33;11.30;;;6.10;99.90;;;;;;5133403;27;20065;-78
2022/01/17 08:26:50;;;;;;;24.27;11.18;;;6.10;99.90;;;;;;5135085;27;20043;-79
2022/01/17 08:29:17;;;;;;;24.00;11.07;;;6.20;99.90;;;;;;5132939;27;20078;-73
2022/01/17 08:31:46;;;;;;;24.73;11.10;;;6.20;99.90;;;;;;5135282;27;20047;-80
2022/01/17 08:34:12;;;;;;;24.98;10.32;;;6.20;99.90;;;;;;5135267;27;20090;-81
2022/01/17 08:36:38;;;;;;;24.35;10.27;;;6.20;99.90;;;;;;5134406;27;20047;-80
2022/01/17 08:39:04;;;;;;;21.10;10.77;;;6.20;99.90;;;;;;5134590;27;20035;-80
2022/01/17 08:41:29;;;;;;;24.48;10.00;;;6.20;99.90;;;;;;5134036;27;20537;-80
2022/01/17 08:43:55;;;;;;;21.85;9.05;;;6.20;99.90;;;;;;5134967;27;20051;-80
2022/01/17 08:46:21;;;;;;;22.63;9.50;;;6.20;99.90;;;;;;5134268;27;20047;-80
2022/01/17 08:48:47;;;;;;;20.55;9.07;;;6.20;99.90;;;;;;5134841;27;20183;-80
2022/01/17 08:51:12;;;;;;;24.85;9.93;;;6.30;99.90;;;;;;5133938;27;20039;-81
2022/01/17 08:53:38;;;;;;;26.90;9.45;;;6.20;99.90;;;;;;5132790;27;20098;-80
2022/01/17 08:56:05;;;;;;;24.00;8.30;;;6.30;99.90;;;;;;5134103;27;20099;-80
2022/01/17 08:58:31;;;;;;;21.42;8.48;;;6.40;99.90;;;;;;5134033;27;20478;-80
2022/01/17 09:00:57;;;;;;;24.48;7.78;;;6.30;99.90;;;;;;5128547;27;20043;-75
2022/01/17 09:03:23;;;;;;;22.17;7.70;;;6.40;99.90;;;;;;5126489;27;20043;-76
2022/01/17 09:05:51;;;;;;;19.85;7.38;;;6.40;99.90;;;;;;5129870;27;20039;-80
2022/01/17 09:08:18;;;;;;;23.60;7.22;;;6.40;99.90;;;;;;5131397;27;20445;-80
2022/01/17 09:10:44;;;;;;;21.60;7.22;;;6.40;99.90;;;;;;5130403;27;20047;-76
2022/01/17 09:13:10;;;;;;;22.30;7.28;;;6.50;99.90;;;;;;5131541;27;20054;-80
2022/01/17 09:15:36;;;;;;;21.92;6.35;;;6.50;99.90;;;;;;5130944;27;20733;-80
2022/01/17 09:18:03;;;;;;;21.35;6.82;;;6.50;99.90;;;;;;5130124;27;20122;-78
2022/01/17 09:20:30;;;;;;;20.80;6.10;;;6.50;99.90;;;;;;5129597;27;20575;-79
2022/01/17 09:22:55;;;;;;;23.90;5.60;;;6.60;99.90;;;;;;5130487;27;20074;-79
2022/01/17 09:25:21;;;;;;;19.30;5.03;;;6.60;99.90;;;;;;5136881;27;20073;-73
2022/01/17 09:27:47;;;;;;;26.25;6.07;;;6.60;99.90;;;;;;5131065;27;20091;-78
2022/01/17 09:30:15;;;;;;;20.15;5.18;;;6.70;99.90;;;;;;5130488;27;20104;-79
2022/01/17 09:32:41;;;;;;;22.42;5.53;;;6.70;99.90;;;;;;5131135;27;20100;-78
2022/01/17 09:35:09;;;;;;;24.80;5.70;;;6.80;99.90;;;;;;5130620;27;20095;-76
2022/01/17 09:37:35;;;;;;;20.38;5.70;;;6.80;99.90;;;;;;5130370;27;20406;-80
2022/01/17 09:40:02;;;;;;;23.20;5.47;;;6.80;99.90;;;;;;5131296;27;20126;-78
2022/01/17 09:42:34;;;;;;;23.20;5.38;;;6.80;99.90;;;;;;5129666;27;20449;-77
2022/01/17 09:45:00;;;;;;;19.60;5.53;;;6.80;99.90;;;;;;5129352;27;20118;-80
2022/01/17 09:47:26;;;;;;;24.00;5.55;;;6.90;99.90;;;;;;5130282;27;20118;-79
2022/01/17 09:49:55;;;;;;;25.58;5.78;;;6.90;99.90;;;;;;5131824;27;20162;-78
2022/01/17 09:52:34;;;;;;;24.50;6.22;;;7.00;99.90;;;;;;5130843;27;20046;-80
2022/01/17 09:55:11;;;;;;;22.75;5.32;;;7.00;99.90;;;;;;5129492;27;20110;-79
2022/01/17 09:57:42;;;;;;;19.85;5.25;;;7.10;99.90;;;;;;5128586;27;20553;-80
2022/01/17 10:00:10;;;;;;;20.08;5.10;;;7.20;99.90;;;;;;5131453;27;20051;-80
2022/01/17 10:02:36;;;;;;;21.98;5.47;;;7.20;99.90;;;;;;5132426;27;20524;-79
2022/01/17 10:05:03;;;;;;;18.20;4.70;;;7.30;99.90;;;;;;5140054;27;20460;-77
2022/01/17 10:07:55;;;;;;;23.13;5.50;;;7.40;99.90;;;;;;5150616;27;20395;-72
2022/01/17 10:10:51;;;;;;;22.70;5.10;;;7.50;99.90;;;;;;5149637;27;20089;-79
2022/01/17 10:13:30;;;;;;;17.77;5.22;;;7.50;99.90;;;;;;5110426;28;20051;-80
2022/01/17 10:16:14;;;;;;;19.92;5.22;;;7.60;99.90;;;;;;5150634;27;20399;-76
2022/01/17 10:18:58;;;;;;;23.48;5.82;;;7.60;99.90;;;;;;5151107;27;20038;-73
2022/01/17 10:21:34;;;;;;;24.88;5.40;;;7.70;99.90;;;;;;5156300;27;20062;-79
2022/01/17 10:37:13;;;;;;;24.60;5.07;;;8.00;99.90;;;;;;5155530;27;20009;-80
2022/01/17 10:39:58;;;;;;;22.30;5.63;;;8.00;99.90;;;;;;5154437;27;20449;-75
2022/01/17 10:42:42;;;;;;;20.85;5.22;;;8.00;99.90;;;;;;5155698;27;20039;-77
2022/01/17 10:45:10;;;;;;;20.15;4.55;;;8.10;99.90;;;;;;5155451;27;20058;-80
2022/01/17 10:47:39;;;;;;;19.70;5.43;;;8.20;99.90;;;;;;5154484;27;20046;-76
2022/01/17 10:50:10;;;;;;;21.55;5.60;;;8.20;99.90;;;;;;5153790;27;20118;-79
2022/01/17 10:52:48;;;;;;;23.52;5.22;;;8.30;99.90;;;;;;5155100;27;20042;-80
2022/01/17 10:55:38;;;;;;;24.23;5.75;;;8.40;99.90;;;;;;5155225;27;20074;-79
2022/01/17 10:58:10;;;;;;;22.63;5.60;;;8.40;99.90;;;;;;5155521;27;20042;-80
2022/01/17 11:00:44;;;;;;;24.40;5.55;;;8.50;99.90;;;;;;5154700;27;20047;-76
2022/01/17 11:03:12;;;;;;;22.20;5.25;;;8.60;99.90;;;;;;5155524;27;20134;-80
2022/01/17 11:05:40;;;;;;;20.50;4.57;;;8.70;99.90;;;;;;5152990;27;20431;-80
2022/01/17 11:08:08;;;;;;;25.55;5.45;;;8.80;99.90;;;;;;5135069;27;20040;-79
2022/01/17 11:10:40;;;;;;;24.90;5.38;;;8.90;99.90;;;;;;5134417;27;20130;-80
2022/01/17 11:13:17;;;;;;;25.67;5.55;;;8.90;99.90;;;;;;5134036;27;20047;-74
2022/01/17 11:15:46;;;;;;;21.40;5.88;;;9.00;99.90;;;;;;5133553;27;20082;-80
2022/01/17 11:18:20;;;;;;;24.67;5.70;;;9.00;99.90;;;;;;5132546;27;20472;-78
2022/01/17 11:20:51;;;;;;;25.08;6.28;;;9.00;99.90;;;;;;5133900;27;20555;-80
2022/01/17 11:23:18;;;;;;;27.50;5.55;;;9.00;99.90;;;;;;5137908;27;20046;-79
2022/01/17 11:25:45;;;;;;;25.77;6.35;;;9.00;99.90;;;;;;5154439;27;20121;-80
2022/01/17 11:28:14;;;;;;;24.80;5.45;;;9.00;99.90;;;;;;5142738;27;20035;-77
2022/01/17 11:30:40;;;;;;;29.95;5.93;;;9.10;99.90;;;;;;5131661;27;20083;-79
2022/01/17 11:33:09;;;;;;;22.13;5.03;;;9.20;99.90;;;;;;5140159;27;20074;-80
2022/01/17 11:35:38;;;;;;;22.98;5.55;;;9.20;99.90;;;;;;5154548;27;20049;-77
2022/01/17 11:38:05;;;;;;;26.25;5.97;;;9.10;99.90;;;;;;5153875;27;20053;-80
2022/01/17 11:40:34;;;;;;;25.92;6.40;;;9.10;99.90;;;;;;5154513;27;20043;-81
2022/01/17 11:43:14;;;;;;;29.10;5.80;;;9.10;99.90;;;;;;5148531;27;20088;-76
2022/01/17 11:45:41;;;;;;;23.92;5.45;;;9.10;99.90;;;;;;5133015;27;20051;-79
2022/01/17 11:48:21;;;;;;;30.50;6.35;;;9.10;99.90;;;;;;5133160;27;20031;-76
2022/01/17 11:50:49;;;;;;;23.80;6.00;;;9.10;99.90;;;;;;5133362;27;20373;-81
2022/01/17 11:53:15;;;;;;;23.95;5.80;;;9.10;99.90;;;;;;5135036;27;20126;-80
2022/01/17 11:55:44;;;;;;;27.73;7.22;;;9.10;99.90;;;;;;5153571;27;20130;-79
2022/01/17 11:58:24;;;;;;;26.30;5.97;;;9.20;99.90;;;;;;5154074;27;20042;-79
2022/01/17 12:01:15;;;;;;;27.08;6.38;;;9.20;99.90;;;;;;5153650;27;20084;-80
2022/01/17 12:03:40;;;;;;;;;;;9.30;99.90;;;;;;5154770;27;20050;-80
2022/01/17 12:06:36;;;;;;;29.20;6.90;;;9.30;99.90;;;;;;5154154;27;19915;-79
2022/01/17 12:09:23;;;;;;;27.20;6.40;;;9.40;99.90;;;;;;5132980;27;20558;-78
2022/01/17 12:12:07;;;;;;;28.85;6.10;;;9.50;99.90;;;;;;5132825;27;20035;-76
2022/01/17 12:14:41;;;;;;;27.75;6.35;;;9.50;99.90;;;;;;5133327;27;20042;-80
2022/01/17 12:17:19;;;;;;;27.05;6.20;;;9.50;99.90;;;;;;5132371;27;20093;-80
2022/01/17 12:20:07;;;;;;;30.88;7.13;;;9.50;99.90;;;;;;5133239;27;20064;-77
2022/01/17 12:22:39;;;;;;;25.05;6.43;;;9.60;99.90;;;;;;5132097;27;20046;-81
2022/01/17 12:25:30;;;;;;;26.38;6.47;;;9.70;99.90;;;;;;5132558;27;20411;-81
2022/01/17 12:28:08;;;;;;;28.08;7.30;;;9.70;99.90;;;;;;5132546;27;20046;-81
2022/01/17 12:30:42;;;;;;;28.52;7.13;;;9.70;99.90;;;;;;5132133;27;20050;-77
2022/01/17 12:33:32;;;;;;;29.23;6.55;;;9.70;99.90;;;;;;5132446;27;20042;-82
2022/01/17 12:36:01;;;;;;;26.60;6.18;;;9.80;99.90;;;;;;5134737;27;20058;-81
2022/01/17 12:38:41;;;;;;;33.53;8.32;;;9.70;99.90;;;;;;5130664;27;20535;-78
2022/01/17 12:41:27;;;;;;;24.45;6.35;;;9.70;99.90;;;;;;5126312;27;20581;-79
2022/01/17 12:43:53;;;;;;;25.02;6.55;;;9.70;99.90;;;;;;5138068;27;20135;-81
2022/01/17 12:46:20;;;;;;;27.85;6.43;;;9.70;99.90;;;;;;5131416;27;20121;-81
2022/01/17 12:48:48;;;;;;;24.25;5.75;;;9.70;99.90;;;;;;5130074;27;20039;-77
2022/01/17 12:51:15;;;;;;;21.88;5.15;;;9.60;99.90;;;;;;5132240;27;20089;-82
2022/01/17 12:53:49;;;;;;;20.73;5.88;;;9.60;99.90;;;;;;5134479;27;20060;-81
2022/01/17 12:56:16;;;;;;;24.85;6.13;;;9.70;99.90;;;;;;5152917;27;20459;-81
2022/01/17 12:58:42;;;;;;;25.33;5.72;;;9.70;99.90;;;;;;5153059;27;20132;-81
2022/01/17 13:01:11;;;;;;;23.20;5.55;;;9.60;99.90;;;;;;5151821;27;20090;-74
2022/01/17 13:03:40;;;;;;;24.00;6.65;;;9.70;99.90;;;;;;5145740;27;20509;-81
2022/01/17 13:06:08;;;;;;;19.38;5.88;;;9.70;99.90;;;;;;5139099;27;20224;-78
2022/01/17 13:08:34;;;;;;;25.23;5.80;;;9.70;99.90;;;;;;5129929;27;20029;-81
2022/01/17 13:11:13;;;;;;;20.65;5.65;;;9.70;99.90;;;;;;5130366;27;20039;-80
2022/01/17 13:13:58;;;;;;;25.52;5.95;;;9.70;99.90;;;;;;5133894;27;20047;-82
2022/01/17 13:16:25;;;;;;;21.20;5.88;;;9.70;99.90;;;;;;5127874;27;20556;-77
2022/01/17 13:18:54;;;;;;;25.63;6.07;;;9.60;99.90;;;;;;5131786;27;20027;-81
2022/01/17 13:21:20;;;;;;;25.80;5.88;;;9.60;99.90;;;;;;5130953;27;20047;-77
2022/01/17 13:24:02;;;;;;;23.15;5.43;;;9.60;99.90;;;;;;5129029;27;20396;-76
2022/01/17 13:26:36;;;;;;;25.15;5.53;;;9.60;99.90;;;;;;5132698;27;20526;-80
2022/01/17 13:29:06;;;;;;;22.13;5.38;;;9.60;99.90;;;;;;5130361;27;20043;-82
2022/01/17 13:31:32;;;;;;;24.52;6.40;;;9.60;99.90;;;;;;5131584;27;20058;-86